KYIP/YIP METAR and TAF weather

Enter ICAO airport designator
Station Type Date Time Source
KYIP METAR 2022/06/28 23:53 UTC NOAA

KYIP 282353Z 19008KT 10SM CLR 27/09 A3016 RMK AO2 SLP208 T02720089 10289 20267 55007


Station Type Date Time Source
KYIP Decoded METAR 2022/06/28 23:53 UTC NOAA

WILLOW RUN AIRPORT, MI, United States (KYIP) 42-14N 083-32W 215M
Jun 28, 2022 - 07:53 PM EDT / 2022.06.28 2353 UTC
Wind: from the S (190 degrees) at 9 MPH (8 KT):0
Visibility: 10 mile(s):0
Sky conditions: clear
Temperature: 81.0 F (27.2 C)
Dew Point: 48.0 F (8.9 C)
Relative Humidity: 31%
Pressure (altimeter): 30.16 in. Hg (1021 hPa)
Pressure tendency: 0.02 inches (0.7 hPa) lower than three hours ago
ob: KYIP 282353Z 19008KT 10SM CLR 27/09 A3016 RMK AO2 SLP208 T02720089 10289 20267 55007
cycle: 0

Station Type Date Time Source
KYIP TAF 2022/06/28 18:45 UTC NOAA

TAF KYIP 281742Z 2818/2918 24006KT P6SM SKC
FM290000 18006KT P6SM SCT250
FM290900 23005KT P6SM BKN070 OVC150
FM291100 24006KT P6SM -SHRA OVC060
FM291500 27008KT P6SM BKN050

Example: see airport list